RXJ2520 OKKK-OEGS
Flight info
| Callsign | RXJ2520 |
|---|---|
| Flight time | 0h 54m |
| Altitude | 32000 |
| Route | DEKOB P517 KMC B417 GAS |
| Aircraft | B737/M-SDE2E3FGHIRWXY/LB1 |
Departure
| Time | 2026-04-20 19:26 |
|---|---|
| Airport | Kuwait International Airport (OKKK) |
Arrival
| Time | 2026-04-20 20:21 |
|---|---|
| Airport | Prince Naif bin Abdulaziz International Airport (OEGS) |
| Time | Latitude | Longitude | Altitude | Speed | Heading |
|---|---|---|---|---|---|
| 2026-04-20 19:03 | 29.24114 | 47.97993 | 165 ft | 0 kts | 17° |
| 2026-04-20 19:23 | 29.24115 | 47.97995 | 167 ft | 1 kts | 44° |
| 2026-04-20 19:24 | 29.24115 | 47.98024 | 167 ft | 9 kts | 92° |
| 2026-04-20 19:24 | 29.24081 | 47.98088 | 168 ft | 10 kts | 95° |
| 2026-04-20 19:24 | 29.24103 | 47.98161 | 168 ft | 10 kts | 64° |
| 2026-04-20 19:24 | 29.24111 | 47.98180 | 168 ft | 1 kts | 64° |
| 2026-04-20 19:25 | 29.24129 | 47.98262 | 166 ft | 13 kts | 104° |
| 2026-04-20 19:25 | 29.24080 | 47.98355 | 166 ft | 14 kts | 137° |
| 2026-04-20 19:25 | 29.23996 | 47.98407 | 168 ft | 14 kts | 154° |
| 2026-04-20 19:25 | 29.23712 | 47.98560 | 174 ft | 87 kts | 154° |
| 2026-04-20 19:26 | 29.22944 | 47.98978 | 226 ft | 154 kts | 154° |
| 2026-04-20 19:26 | 29.21844 | 47.99389 | 909 ft | 173 kts | 161° |
| 2026-04-20 19:26 | 29.20720 | 47.99814 | 1799 ft | 164 kts | 161° |
| 2026-04-20 19:26 | 29.19655 | 48.00252 | 2455 ft | 164 kts | 164° |
| 2026-04-20 19:27 | 29.18532 | 48.00709 | 3146 ft | 177 kts | 167° |
| 2026-04-20 19:27 | 29.17398 | 48.01160 | 3818 ft | 188 kts | 167° |
| 2026-04-20 19:27 | 29.16130 | 48.01626 | 4558 ft | 199 kts | 171° |
| 2026-04-20 19:27 | 29.14764 | 48.01979 | 5281 ft | 203 kts | 177° |
| 2026-04-20 19:28 | 29.13348 | 48.02171 | 6051 ft | 206 kts | 182° |
| 2026-04-20 19:28 | 29.11909 | 48.02225 | 6783 ft | 207 kts | 186° |
| 2026-04-20 19:28 | 29.10467 | 48.02177 | 7499 ft | 207 kts | 189° |
| 2026-04-20 19:28 | 29.08970 | 48.02036 | 7879 ft | 229 kts | 191° |
| 2026-04-20 19:29 | 29.07282 | 48.01813 | 8114 ft | 260 kts | 191° |
| 2026-04-20 19:29 | 29.05394 | 48.01554 | 8586 ft | 281 kts | 191° |
| 2026-04-20 19:29 | 29.03446 | 48.01292 | 9460 ft | 288 kts | 191° |
| 2026-04-20 19:29 | 29.01443 | 48.01025 | 10343 ft | 293 kts | 191° |
| 2026-04-20 19:30 | 28.99343 | 48.00742 | 10695 ft | 318 kts | 191° |
| 2026-04-20 19:30 | 28.97056 | 48.00431 | 10901 ft | 344 kts | 191° |
| 2026-04-20 19:30 | 28.94600 | 48.00101 | 11276 ft | 362 kts | 191° |
| 2026-04-20 19:30 | 28.92072 | 47.99768 | 11968 ft | 369 kts | 191° |
| 2026-04-20 19:31 | 28.89504 | 47.99432 | 12775 ft | 372 kts | 191° |
| 2026-04-20 19:31 | 28.86923 | 47.99093 | 13572 ft | 375 kts | 191° |
| 2026-04-20 19:31 | 28.84314 | 47.98748 | 14278 ft | 379 kts | 191° |
| 2026-04-20 19:31 | 28.81687 | 47.98401 | 15050 ft | 380 kts | 191° |
| 2026-04-20 19:32 | 28.79062 | 47.98054 | 15832 ft | 381 kts | 191° |
| 2026-04-20 19:32 | 28.76458 | 47.97709 | 16550 ft | 383 kts | 192° |
| 2026-04-20 19:32 | 28.73801 | 47.97357 | 17272 ft | 385 kts | 192° |
| 2026-04-20 19:32 | 28.71129 | 47.97002 | 17973 ft | 387 kts | 192° |
| 2026-04-20 19:33 | 28.68444 | 47.96647 | 18594 ft | 390 kts | 192° |
| 2026-04-20 19:33 | 28.65739 | 47.96288 | 19157 ft | 393 kts | 192° |
| 2026-04-20 19:33 | 28.63071 | 47.95684 | 19662 ft | 389 kts | 205° |
| 2026-04-20 19:33 | 28.60716 | 47.94253 | 20241 ft | 382 kts | 220° |
| 2026-04-20 19:34 | 28.58762 | 47.92232 | 20851 ft | 379 kts | 229° |
| 2026-04-20 19:34 | 28.56912 | 47.90080 | 21390 ft | 382 kts | 229° |
| 2026-04-20 19:34 | 28.55032 | 47.87928 | 21892 ft | 385 kts | 228° |
| 2026-04-20 19:34 | 28.53120 | 47.85777 | 22428 ft | 387 kts | 227° |
| 2026-04-20 19:35 | 28.51847 | 47.84351 | 22776 ft | 388 kts | 228° |
| 2026-04-20 19:35 | 28.49300 | 47.81466 | 23420 ft | 392 kts | 228° |
| 2026-04-20 19:35 | 28.47369 | 47.79267 | 23822 ft | 394 kts | 228° |
| 2026-04-20 19:35 | 28.45426 | 47.77055 | 24236 ft | 396 kts | 228° |
| 2026-04-20 19:36 | 28.43478 | 47.74840 | 24636 ft | 397 kts | 228° |
| 2026-04-20 19:36 | 28.41519 | 47.72613 | 25040 ft | 399 kts | 228° |
| 2026-04-20 19:36 | 28.40216 | 47.71134 | 25295 ft | 400 kts | 228° |
| 2026-04-20 19:36 | 28.38243 | 47.68896 | 25680 ft | 402 kts | 228° |
| 2026-04-20 19:37 | 28.36258 | 47.66646 | 26056 ft | 404 kts | 228° |
| 2026-04-20 19:37 | 28.34267 | 47.64390 | 26436 ft | 406 kts | 227° |
| 2026-04-20 19:37 | 28.32264 | 47.62122 | 26782 ft | 408 kts | 227° |
| 2026-04-20 19:37 | 28.30253 | 47.59846 | 27125 ft | 410 kts | 227° |
| 2026-04-20 19:38 | 28.28230 | 47.57558 | 27483 ft | 411 kts | 227° |
| 2026-04-20 19:38 | 28.26208 | 47.55273 | 27942 ft | 409 kts | 227° |
| 2026-04-20 19:38 | 28.24194 | 47.52999 | 28477 ft | 407 kts | 227° |
| 2026-04-20 19:38 | 28.22367 | 47.50581 | 29003 ft | 402 kts | 237° |
| 2026-04-20 19:39 | 28.20967 | 47.47851 | 29575 ft | 399 kts | 244° |
| 2026-04-20 19:39 | 28.19858 | 47.44974 | 30087 ft | 398 kts | 249° |
| 2026-04-20 19:39 | 28.19152 | 47.41941 | 30522 ft | 398 kts | 258° |
| 2026-04-20 19:39 | 28.18684 | 47.38861 | 31072 ft | 394 kts | 257° |
| 2026-04-20 19:40 | 28.18207 | 47.35808 | 31603 ft | 391 kts | 257° |
| 2026-04-20 19:40 | 28.17724 | 47.32775 | 31922 ft | 393 kts | 257° |
| 2026-04-20 19:40 | 28.17234 | 47.29742 | 31923 ft | 398 kts | 257° |
| 2026-04-20 19:41 | 28.16213 | 47.23489 | 31950 ft | 408 kts | 257° |
| 2026-04-20 19:41 | 28.15169 | 47.17116 | 31945 ft | 412 kts | 257° |
| 2026-04-20 19:42 | 28.14121 | 47.10726 | 31940 ft | 412 kts | 257° |
| 2026-04-20 19:42 | 28.13069 | 47.04335 | 31942 ft | 412 kts | 257° |
| 2026-04-20 19:43 | 28.12193 | 46.99028 | 31949 ft | 412 kts | 257° |
| 2026-04-20 19:43 | 28.10958 | 46.91566 | 31953 ft | 412 kts | 256° |
| 2026-04-20 19:44 | 28.09900 | 46.85182 | 31948 ft | 412 kts | 256° |
| 2026-04-20 19:44 | 28.08856 | 46.78842 | 31959 ft | 412 kts | 256° |
| 2026-04-20 19:45 | 28.07802 | 46.72460 | 31956 ft | 412 kts | 256° |
| 2026-04-20 19:45 | 28.06747 | 46.66088 | 31959 ft | 412 kts | 256° |
| 2026-04-20 19:46 | 28.05686 | 46.59721 | 31957 ft | 411 kts | 256° |
| 2026-04-20 19:46 | 28.04624 | 46.53367 | 31965 ft | 411 kts | 256° |
| 2026-04-20 19:47 | 28.03557 | 46.47002 | 31971 ft | 411 kts | 255° |
| 2026-04-20 19:47 | 28.02492 | 46.40658 | 31964 ft | 410 kts | 255° |
| 2026-04-20 19:48 | 28.01425 | 46.34322 | 31958 ft | 409 kts | 255° |
| 2026-04-20 19:48 | 28.00364 | 46.28044 | 31968 ft | 408 kts | 255° |
| 2026-04-20 19:49 | 27.99297 | 46.21738 | 31964 ft | 407 kts | 255° |
| 2026-04-20 19:49 | 27.98233 | 46.15439 | 31966 ft | 407 kts | 255° |
| 2026-04-20 19:50 | 27.97181 | 46.09151 | 31970 ft | 406 kts | 255° |
| 2026-04-20 19:50 | 27.96135 | 46.02909 | 31961 ft | 406 kts | 255° |
| 2026-04-20 19:51 | 27.95079 | 45.96630 | 31967 ft | 406 kts | 255° |
| 2026-04-20 19:51 | 27.94021 | 45.90361 | 31950 ft | 406 kts | 255° |
| 2026-04-20 19:52 | 27.92959 | 45.84087 | 31964 ft | 406 kts | 255° |
| 2026-04-20 19:52 | 27.91892 | 45.77801 | 31951 ft | 407 kts | 255° |
| 2026-04-20 19:53 | 27.90829 | 45.71558 | 31965 ft | 407 kts | 255° |
| 2026-04-20 19:53 | 27.89757 | 45.65273 | 31962 ft | 407 kts | 255° |
| 2026-04-20 19:54 | 27.88483 | 45.59066 | 31946 ft | 402 kts | 245° |
| 2026-04-20 19:54 | 27.85761 | 45.53576 | 31945 ft | 400 kts | 234° |
| 2026-04-20 19:55 | 27.81873 | 45.49064 | 31961 ft | 402 kts | 224° |
| 2026-04-20 19:55 | 27.77746 | 45.44830 | 31943 ft | 404 kts | 224° |
| 2026-04-20 19:56 | 27.73596 | 45.40530 | 31959 ft | 405 kts | 225° |
| 2026-04-20 19:56 | 27.69437 | 45.36213 | 31961 ft | 407 kts | 225° |
| 2026-04-20 19:57 | 27.65253 | 45.31873 | 31953 ft | 409 kts | 225° |
| 2026-04-20 19:57 | 27.61060 | 45.27529 | 31953 ft | 410 kts | 225° |
| 2026-04-20 19:58 | 27.56852 | 45.23177 | 31952 ft | 411 kts | 225° |
| 2026-04-20 19:58 | 27.52807 | 45.18640 | 31951 ft | 410 kts | 228° |
| 2026-04-20 19:59 | 27.48875 | 45.14036 | 31946 ft | 410 kts | 228° |
| 2026-04-20 19:59 | 27.44910 | 45.09407 | 31952 ft | 411 kts | 228° |
| 2026-04-20 20:00 | 27.40932 | 45.04789 | 31946 ft | 411 kts | 228° |
| 2026-04-20 20:00 | 27.36946 | 45.00174 | 31942 ft | 410 kts | 228° |
| 2026-04-20 20:01 | 27.32962 | 44.95568 | 31941 ft | 411 kts | 229° |
| 2026-04-20 20:01 | 27.28972 | 44.90959 | 31942 ft | 411 kts | 229° |
| 2026-04-20 20:02 | 27.25015 | 44.86393 | 31940 ft | 410 kts | 229° |
| 2026-04-20 20:02 | 27.21036 | 44.81807 | 31933 ft | 409 kts | 229° |
| 2026-04-20 20:03 | 27.17066 | 44.77234 | 31938 ft | 408 kts | 229° |
| 2026-04-20 20:03 | 27.13081 | 44.72651 | 31930 ft | 408 kts | 229° |
| 2026-04-20 20:04 | 27.09143 | 44.68116 | 31926 ft | 408 kts | 229° |
| 2026-04-20 20:04 | 27.05181 | 44.63553 | 31927 ft | 407 kts | 229° |
| 2026-04-20 20:04 | 27.03234 | 44.61314 | 31906 ft | 394 kts | 229° |
| 2026-04-20 20:05 | 27.01349 | 44.59149 | 31908 ft | 383 kts | 230° |
| 2026-04-20 20:05 | 26.97644 | 44.54892 | 31926 ft | 382 kts | 230° |
| 2026-04-20 20:06 | 26.93911 | 44.50625 | 31464 ft | 381 kts | 229° |
| 2026-04-20 20:06 | 26.92059 | 44.48512 | 30917 ft | 379 kts | 229° |
| 2026-04-20 20:06 | 26.90230 | 44.46427 | 30454 ft | 374 kts | 229° |
| 2026-04-20 20:06 | 26.88412 | 44.44352 | 29930 ft | 371 kts | 229° |
| 2026-04-20 20:07 | 26.86605 | 44.42291 | 29309 ft | 369 kts | 229° |
| 2026-04-20 20:07 | 26.84817 | 44.40251 | 28757 ft | 365 kts | 229° |
| 2026-04-20 20:07 | 26.83046 | 44.38232 | 28215 ft | 361 kts | 229° |
| 2026-04-20 20:07 | 26.81317 | 44.36262 | 27698 ft | 357 kts | 229° |
| 2026-04-20 20:08 | 26.79579 | 44.34281 | 27173 ft | 354 kts | 229° |
| 2026-04-20 20:08 | 26.77860 | 44.32325 | 26651 ft | 351 kts | 229° |
| 2026-04-20 20:08 | 26.76154 | 44.30384 | 26141 ft | 348 kts | 229° |
| 2026-04-20 20:08 | 26.74457 | 44.28457 | 25634 ft | 346 kts | 229° |
| 2026-04-20 20:09 | 26.72772 | 44.26544 | 25132 ft | 344 kts | 229° |
| 2026-04-20 20:09 | 26.71096 | 44.24642 | 24611 ft | 342 kts | 229° |
| 2026-04-20 20:09 | 26.69430 | 44.22752 | 24096 ft | 341 kts | 229° |
| 2026-04-20 20:09 | 26.67788 | 44.20889 | 23575 ft | 340 kts | 229° |
| 2026-04-20 20:10 | 26.66129 | 44.19008 | 22995 ft | 338 kts | 229° |
| 2026-04-20 20:10 | 26.64481 | 44.17140 | 22451 ft | 335 kts | 229° |
| 2026-04-20 20:10 | 26.62850 | 44.15292 | 21932 ft | 333 kts | 228° |
| 2026-04-20 20:10 | 26.61232 | 44.13460 | 21414 ft | 330 kts | 228° |
| 2026-04-20 20:11 | 26.59625 | 44.11640 | 20912 ft | 327 kts | 228° |
| 2026-04-20 20:11 | 26.58034 | 44.09839 | 20418 ft | 325 kts | 228° |
| 2026-04-20 20:11 | 26.56452 | 44.08048 | 19927 ft | 323 kts | 228° |
| 2026-04-20 20:11 | 26.54877 | 44.06267 | 19427 ft | 321 kts | 228° |
| 2026-04-20 20:12 | 26.53310 | 44.04495 | 18922 ft | 320 kts | 228° |
| 2026-04-20 20:12 | 26.51746 | 44.02728 | 18426 ft | 319 kts | 228° |
| 2026-04-20 20:12 | 26.50187 | 44.00967 | 17856 ft | 319 kts | 228° |
| 2026-04-20 20:13 | 26.47092 | 43.97474 | 16817 ft | 314 kts | 228° |
| 2026-04-20 20:13 | 26.45560 | 43.95745 | 16320 ft | 312 kts | 228° |
| 2026-04-20 20:13 | 26.44133 | 43.93960 | 15992 ft | 302 kts | 240° |
| 2026-04-20 20:13 | 26.43460 | 43.91818 | 15932 ft | 287 kts | 260° |
| 2026-04-20 20:14 | 26.43353 | 43.89710 | 16067 ft | 266 kts | 269° |
| 2026-04-20 20:14 | 26.43630 | 43.87720 | 15935 ft | 253 kts | 281° |
| 2026-04-20 20:14 | 26.44213 | 43.85914 | 15560 ft | 247 kts | 286° |
| 2026-04-20 20:14 | 26.44880 | 43.84137 | 14976 ft | 248 kts | 287° |
| 2026-04-20 20:15 | 26.45559 | 43.82360 | 14325 ft | 250 kts | 287° |
| 2026-04-20 20:15 | 26.46242 | 43.80553 | 13609 ft | 254 kts | 287° |
| 2026-04-20 20:15 | 26.46930 | 43.78713 | 12766 ft | 259 kts | 287° |
| 2026-04-20 20:15 | 26.47624 | 43.76842 | 11952 ft | 263 kts | 287° |
| 2026-04-20 20:16 | 26.48327 | 43.74941 | 11165 ft | 265 kts | 288° |
| 2026-04-20 20:16 | 26.49031 | 43.73038 | 10363 ft | 264 kts | 288° |
| 2026-04-20 20:16 | 26.49571 | 43.71121 | 9554 ft | 254 kts | 270° |
| 2026-04-20 20:16 | 26.49153 | 43.69270 | 8735 ft | 247 kts | 236° |
| 2026-04-20 20:17 | 26.47817 | 43.68121 | 7918 ft | 250 kts | 200° |
| 2026-04-20 20:17 | 26.46081 | 43.68147 | 7143 ft | 258 kts | 165° |
| 2026-04-20 20:17 | 26.44480 | 43.69073 | 6407 ft | 259 kts | 154° |
| 2026-04-20 20:17 | 26.42920 | 43.70057 | 5525 ft | 261 kts | 155° |
| 2026-04-20 20:18 | 26.41406 | 43.71005 | 5291 ft | 238 kts | 154° |
| 2026-04-20 20:18 | 26.39991 | 43.71853 | 4806 ft | 231 kts | 155° |
| 2026-04-20 20:18 | 26.38621 | 43.72633 | 4465 ft | 216 kts | 155° |
| 2026-04-20 20:18 | 26.37250 | 43.73402 | 3666 ft | 215 kts | 153° |
| 2026-04-20 20:19 | 26.36036 | 43.74096 | 3262 ft | 184 kts | 153° |
| 2026-04-20 20:19 | 26.34934 | 43.74709 | 2833 ft | 168 kts | 152° |
| 2026-04-20 20:19 | 26.34007 | 43.75289 | 2667 ft | 145 kts | 149° |
| 2026-04-20 20:19 | 26.33126 | 43.75808 | 2471 ft | 137 kts | 154° |
| 2026-04-20 20:20 | 26.32307 | 43.76274 | 2314 ft | 131 kts | 153° |
| 2026-04-20 20:20 | 26.31496 | 43.76731 | 2189 ft | 131 kts | 154° |
| 2026-04-20 20:20 | 26.30706 | 43.77173 | 2133 ft | 111 kts | 153° |
| 2026-04-20 20:20 | 26.30100 | 43.77515 | 2132 ft | 80 kts | 153° |
| 2026-04-20 20:21 | 26.29717 | 43.77732 | 2132 ft | 32 kts | 153° |
| 2026-04-20 20:21 | 26.29514 | 43.77850 | 2134 ft | 32 kts | 153° |
| 2026-04-20 20:21 | 26.29326 | 43.77956 | 2132 ft | 29 kts | 153° |
| 2026-04-20 20:21 | 26.29164 | 43.78048 | 2131 ft | 20 kts | 153° |
| 2026-04-20 20:22 | 26.29082 | 43.78065 | 2130 ft | 19 kts | 206° |
| 2026-04-20 20:22 | 26.29075 | 43.77894 | 2130 ft | 18 kts | 289° |
| 2026-04-20 20:22 | 26.29157 | 43.77802 | 2131 ft | 17 kts | 333° |
| 2026-04-20 20:22 | 26.29260 | 43.77743 | 2131 ft | 16 kts | 333° |
| 2026-04-20 20:23 | 26.29360 | 43.77686 | 2131 ft | 16 kts | 333° |
| 2026-04-20 20:23 | 26.29457 | 43.77632 | 2131 ft | 15 kts | 333° |
| 2026-04-20 20:23 | 26.29550 | 43.77580 | 2131 ft | 15 kts | 333° |
| 2026-04-20 20:23 | 26.29638 | 43.77530 | 2131 ft | 14 kts | 333° |
| 2026-04-20 20:24 | 26.29725 | 43.77480 | 2132 ft | 15 kts | 333° |
| 2026-04-20 20:24 | 26.29801 | 43.77437 | 2132 ft | 25 kts | 333° |
| 2026-04-20 20:24 | 26.30040 | 43.77301 | 2132 ft | 41 kts | 333° |
| 2026-04-20 20:24 | 26.30207 | 43.77200 | 2132 ft | 19 kts | 313° |
| 2026-04-20 20:25 | 26.30251 | 43.77095 | 2132 ft | 11 kts | 291° |
| 2026-04-20 20:25 | 26.30259 | 43.77072 | 2131 ft | 0 kts | 292° |